WMKM/MKZ METAR and TAF weather

Enter ICAO airport designator
Station Type Date Time Source
WMKM METAR 2023/02/05 22:00 UTC NOAA

WMKM 052200Z 02003KT 320V080 7000 SCT027 24/23 Q1010


Station Type Date Time Source
WMKM Decoded METAR 2023/02/05 22:00 UTC NOAA

Malacca, Malaysia (WMKM) 02-16N 102-15E 9M
Feb 05, 2023 - 05:00 PM EST / 2023.02.05 2200 UTC
Wind: from the NNE (020 degrees) at 3 MPH (3 KT) (direction variable):0
Visibility: 4 mile(s):0
Sky conditions: partly cloudy
Temperature: 75 F (24 C)
Dew Point: 73 F (23 C)
Relative Humidity: 94%
Pressure (altimeter): 29.83 in. Hg (1010 hPa)
ob: WMKM 052200Z 02003KT 320V080 7000 SCT027 24/23 Q1010
cycle: 22

Station Type Date Time Source
WMKM TAF 2023/02/05 18:00 UTC NOAA

TAF WMKM 051700Z 0518/0618 01005KT 9999 FEW027
TEMPO 0521/0602 28008KT 3000 +TSRA FEW017CB SCT018

Example: see airport list